Time;durP1;ratioP1;P1;durP2;ratioP2;P2;SDS_P1;SDS_P2;PMS_P1;PMS_P2;Temp;Humidity;BMP_temperature;BMP_pressure;BME280_temperature;BME280_humidity;BME280_pressure;Samples;Min_cycle;Max_cycle;Signal;HPM_P1;HPM_P2
2023/07/15 00:00:49;;;;;;;3.45;1.83;;;;;;;22.08;69.13;100151.53;4945001;29;20103;-73
2023/07/15 00:03:35;;;;;;;8.80;1.98;;;;;;;22.02;68.49;100148.53;4976503;28;20060;-73
2023/07/15 00:06:22;;;;;;;8.68;2.03;;;;;;;22.07;68.37;100147.03;4977292;28;20101;-73
2023/07/15 00:09:08;;;;;;;3.97;1.70;;;;;;;21.99;68.38;100148.97;4978046;28;20077;-73
2023/07/15 00:11:54;;;;;;;3.97;1.77;;;;;;;22.06;67.54;100143.38;4949399;28;20091;-74
2023/07/15 00:14:40;;;;;;;5.35;1.90;;;;;;;22.10;67.67;100139.06;4981679;28;20043;-74
2023/07/15 00:17:25;;;;;;;4.65;1.90;;;;;;;22.01;68.29;100146.81;4964045;28;20051;-74
2023/07/15 00:20:14;;;;;;;6.72;1.88;;;;;;;21.96;67.94;100148.53;4983004;28;20055;-75
2023/07/15 00:23:01;;;;;;;4.47;1.90;;;;;;;22.02;67.23;100136.50;4955558;28;20019;-73
2023/07/15 00:25:47;;;;;;;5.57;1.90;;;;;;;21.89;69.32;100140.19;4966632;28;20039;-74
2023/07/15 00:28:33;;;;;;;7.65;2.00;;;;;;;21.93;67.59;100129.44;4951501;28;20042;-74
2023/07/15 00:31:19;;;;;;;3.70;2.08;;;;;;;21.93;68.51;100127.50;4978629;28;20042;-75
2023/07/15 00:34:05;;;;;;;7.32;1.90;;;;;;;21.86;68.00;100126.66;4951946;28;20030;-74
2023/07/15 00:36:51;;;;;;;4.95;1.63;;;;;;;21.85;69.01;100131.34;4978251;28;20019;-75
2023/07/15 00:39:36;;;;;;;6.20;1.75;;;;;;;21.83;67.68;100133.50;4977082;28;20099;-75
2023/07/15 00:42:49;;;;;;;7.13;1.95;;;;;;;21.73;68.85;100123.88;4977687;28;20108;-74
2023/07/15 00:45:35;;;;;;;2.05;1.77;;;;;;;21.81;67.91;100121.72;4978915;28;20099;-74
2023/07/15 00:48:29;;;;;;;3.33;2.15;;;;;;;21.77;68.28;100131.56;4983502;28;20042;-75
2023/07/15 00:51:15;;;;;;;6.32;1.80;;;;;;;21.70;69.15;100132.66;4978381;28;20042;-76
2023/07/15 00:54:03;;;;;;;10.85;2.10;;;;;;;21.69;68.81;100126.19;4949565;29;20034;-74
2023/07/15 00:56:49;;;;;;;4.75;1.98;;;;;;;21.75;68.81;100133.72;4963082;28;20047;-74
2023/07/15 00:59:39;;;;;;;2.42;1.80;;;;;;;21.84;67.99;100128.78;4976676;28;20089;-73
2023/07/15 01:02:25;;;;;;;9.02;1.80;;;;;;;21.80;68.05;100130.28;4947512;28;20054;-75
2023/07/15 01:05:11;;;;;;;4.65;1.90;;;;;;;21.79;68.29;100131.34;4977380;28;20035;-75
2023/07/15 01:07:57;;;;;;;6.45;2.13;;;;;;;21.75;68.17;100135.66;4937355;29;20046;-75
2023/07/15 01:10:42;;;;;;;3.88;1.80;;;;;;;21.69;68.72;100133.72;4953388;28;20039;-75
2023/07/15 01:13:28;;;;;;;4.50;2.22;;;;;;;21.74;67.78;100125.56;4945704;28;20035;-75
2023/07/15 01:16:14;;;;;;;4.90;1.90;;;;;;;21.60;69.61;100127.50;4966195;28;20046;-75
2023/07/15 01:19:00;;;;;;;5.60;1.98;;;;;;;21.54;69.23;100137.53;4975564;28;20043;-74
2023/07/15 01:21:50;;;;;;;4.13;1.95;;;;;;;21.60;69.65;100133.06;4976387;28;20047;-74
2023/07/15 01:24:36;;;;;;;3.30;1.60;;;;;;;21.54;69.76;100120.81;4948981;28;20050;-74
2023/07/15 01:27:21;;;;;;;5.80;1.70;;;;;;;21.42;70.21;100122.50;4960863;29;20110;-74
2023/07/15 01:30:09;;;;;;;3.70;1.52;;;;;;;21.37;71.05;100133.41;4968269;29;20050;-75
2023/07/15 01:32:55;;;;;;;3.17;1.75;;;;;;;21.26;72.13;100135.72;4961707;28;20042;-74
2023/07/15 01:35:47;;;;;;;8.38;2.10;;;;;;;21.16;72.16;100126.91;4974459;28;20043;-74
2023/07/15 01:38:33;;;;;;;5.47;2.10;;;;;;;21.20;72.16;100121.78;4960961;28;20071;-74
2023/07/15 01:41:19;;;;;;;2.30;1.75;;;;;;;21.36;70.87;100129.75;4974997;28;20302;-74
2023/07/15 01:44:04;;;;;;;6.22;1.98;;;;;;;21.40;70.27;100121.84;4970068;28;20043;-74
2023/07/15 01:46:50;;;;;;;4.80;1.75;;;;;;;21.35;70.09;100124.38;4944030;29;20039;-74
2023/07/15 01:49:36;;;;;;;6.57;1.95;;;;;;;21.25;71.56;100122.00;4950316;28;20057;-74
2023/07/15 01:52:21;;;;;;;3.53;1.88;;;;;;;21.17;73.42;100122.19;4972546;28;20054;-74
2023/07/15 01:55:08;;;;;;;8.73;1.88;;;;;;;21.06;73.61;100120.91;4943963;28;20047;-74
2023/07/15 01:57:53;;;;;;;4.75;2.00;;;;;;;21.05;73.14;100116.38;4950507;29;20062;-74
2023/07/15 02:00:39;;;;;;;9.60;1.85;;;;;;;20.93;73.04;100116.97;4969251;28;20119;-73
2023/07/15 02:03:25;;;;;;;8.02;1.60;;;;;;;20.95;73.61;100122.34;4957988;28;20043;-74
2023/07/15 02:06:11;;;;;;;7.20;1.85;;;;;;;20.90;75.08;100124.88;4958021;28;20092;-74
2023/07/15 02:08:57;;;;;;;4.80;1.88;;;;;;;20.88;74.24;100119.53;4975619;29;20027;-74
2023/07/15 02:11:43;;;;;;;5.85;2.17;;;;;;;20.83;74.84;100110.09;4975545;28;20593;-74
2023/07/15 02:14:28;;;;;;;7.05;2.13;;;;;;;20.73;78.27;100116.91;4936889;28;20090;-74
2023/07/15 02:17:17;;;;;;;7.72;1.80;;;;;;;20.69;75.88;100118.38;4950212;28;20196;-74
2023/07/15 02:20:07;;;;;;;3.72;1.48;;;;;;;20.68;76.26;100116.66;4951812;28;20703;-75
2023/07/15 02:22:52;;;;;;;4.10;1.52;;;;;;;20.55;77.64;100122.13;4957817;28;20074;-74
2023/07/15 02:25:38;;;;;;;3.33;1.58;;;;;;;20.51;77.68;100113.34;4963346;28;20055;-74
2023/07/15 02:28:26;;;;;;;3.75;1.67;;;;;;;20.56;78.11;100115.47;4962471;28;20059;-74
2023/07/15 02:31:14;;;;;;;5.90;1.58;;;;;;;20.50;78.77;100116.31;4971999;28;20039;-74
2023/07/15 02:33:59;;;;;;;6.90;1.80;;;;;;;20.52;79.33;100126.16;4963447;28;20040;-74
2023/07/15 02:36:45;;;;;;;6.22;1.63;;;;;;;20.31;80.60;100115.97;4970793;28;20035;-74
2023/07/15 02:39:33;;;;;;;3.88;1.90;;;;;;;20.21;84.17;100132.16;4973425;28;20039;-74
2023/07/15 02:42:19;;;;;;;4.03;1.80;;;;;;;20.20;81.87;100127.66;4955409;29;20102;-75
2023/07/15 02:45:07;;;;;;;6.50;2.20;;;;;;;20.24;81.92;100128.13;4975957;28;20090;-74
2023/07/15 02:47:52;;;;;;;13.13;2.22;;;;;;;20.14;82.81;100122.94;4961450;28;20050;-74
2023/07/15 02:50:38;;;;;;;8.35;1.88;;;;;;;20.08;83.78;100126.50;4975193;28;20043;-74
2023/07/15 02:53:24;;;;;;;4.45;2.00;;;;;;;20.01;85.97;100124.53;4942625;29;20047;-75
2023/07/15 02:56:10;;;;;;;3.92;1.85;;;;;;;19.94;85.68;100123.63;4939997;29;20035;-75
2023/07/15 02:58:55;;;;;;;4.57;1.58;;;;;;;19.95;87.72;100121.69;4945096;29;20068;-74
2023/07/15 03:01:41;;;;;;;2.20;1.60;;;;;;;19.87;86.19;100119.91;4960377;29;20047;-75
2023/07/15 03:04:27;;;;;;;4.35;1.90;;;;;;;19.81;88.63;100123.53;4942695;29;20121;-75
2023/07/15 03:07:13;;;;;;;6.47;2.00;;;;;;;19.82;90.59;100125.22;4960048;28;20048;-75
2023/07/15 03:09:59;;;;;;;2.75;1.92;;;;;;;19.63;93.19;100119.25;4978358;28;20036;-74
2023/07/15 03:12:47;;;;;;;8.68;2.40;;;;;;;19.44;98.63;100119.91;4978083;28;20077;-75
2023/07/15 03:15:35;;;;;;;5.38;1.95;;;;;;;19.30;98.42;100121.72;4971315;28;20158;-75
2023/07/15 03:18:25;;;;;;;4.65;1.88;;;;;;;19.23;98.38;100120.75;4964215;28;20051;-74
2023/07/15 03:21:10;;;;;;;3.50;1.77;;;;;;;19.14;100.00;100128.34;4967411;28;20023;-75
2023/07/15 03:23:56;;;;;;;2.10;1.63;;;;;;;19.06;100.00;100126.53;4961838;28;20039;-75
2023/07/15 03:26:42;;;;;;;4.05;2.05;;;;;;;19.03;100.00;100121.38;4961084;28;20047;-75
2023/07/15 03:29:28;;;;;;;6.95;1.98;;;;;;;18.99;100.00;100124.72;4975250;28;20047;-75
2023/07/15 03:32:13;;;;;;;5.22;2.10;;;;;;;18.98;100.00;100125.81;4967128;28;20027;-75
2023/07/15 03:34:59;;;;;;;14.05;2.30;;;;;;;18.80;100.00;100129.81;4966801;28;20046;-74
2023/07/15 03:37:45;;;;;;;3.53;2.15;;;;;;;18.71;100.00;100136.53;4955926;29;20035;-74
2023/07/15 03:40:31;;;;;;;10.50;2.20;;;;;;;18.60;100.00;100129.56;4960547;28;20413;-75
2023/07/15 03:43:17;;;;;;;7.53;2.33;;;;;;;18.64;100.00;100141.97;4948370;28;20047;-74
2023/07/15 03:46:03;;;;;;;5.20;2.22;;;;;;;18.49;100.00;100136.44;4922851;29;20051;-74
2023/07/15 03:48:49;;;;;;;6.97;2.00;;;;;;;18.48;100.00;100136.63;4952594;28;20067;-75
2023/07/15 03:51:35;;;;;;;5.25;2.15;;;;;;;18.47;100.00;100130.22;4951270;29;20055;-75
2023/07/15 03:54:20;;;;;;;2.35;1.73;;;;;;;18.50;100.00;100132.63;4952297;29;20131;-74
2023/07/15 03:57:06;;;;;;;5.95;2.25;;;;;;;18.30;100.00;100134.22;4971075;29;20050;-74
2023/07/15 03:59:52;;;;;;;6.18;2.03;;;;;;;18.30;100.00;100128.69;4947922;28;20032;-75
2023/07/15 04:02:39;;;;;;;8.80;2.17;;;;;;;18.32;100.00;100134.91;4963355;28;20047;-75
2023/07/15 04:05:25;;;;;;;4.85;1.92;;;;;;;18.25;100.00;100133.94;4957745;28;20146;-75
2023/07/15 04:08:11;;;;;;;8.07;2.05;;;;;;;18.27;100.00;100132.72;4951176;29;20054;-75
2023/07/15 04:10:56;;;;;;;14.55;2.35;;;;;;;18.22;100.00;100131.53;4937814;29;20071;-74
2023/07/15 04:13:42;;;;;;;5.45;2.50;;;;;;;18.39;100.00;100129.47;4969287;28;20039;-74
2023/07/15 04:16:28;;;;;;;3.95;2.53;;;;;;;18.49;100.00;100139.19;4979316;28;20035;-74
2023/07/15 04:19:14;;;;;;;11.05;2.83;;;;;;;18.50;100.00;100140.09;4975532;28;20079;-75
2023/07/15 04:22:00;;;;;;;11.07;3.30;;;;;;;18.45;100.00;100135.09;4958337;28;20467;-74
2023/07/15 04:24:46;;;;;;;3.97;2.22;;;;;;;18.48;100.00;100133.84;4949229;28;20043;-74
2023/07/15 04:27:32;;;;;;;4.97;2.65;;;;;;;18.40;100.00;100136.72;4946327;28;20047;-73
2023/07/15 04:30:17;;;;;;;7.97;3.08;;;;;;;18.44;100.00;100143.59;4944279;29;20047;-74
2023/07/15 04:33:03;;;;;;;7.32;3.55;;;;;;;18.53;100.00;100132.22;4973349;28;20043;-74
2023/07/15 04:35:49;;;;;;;5.75;2.97;;;;;;;18.66;100.00;100130.69;4949889;29;20031;-75
2023/07/15 04:38:35;;;;;;;15.48;3.38;;;;;;;18.79;100.00;100135.56;4937045;28;20047;-74
2023/07/15 04:41:20;;;;;;;7.60;2.88;;;;;;;18.73;100.00;100145.53;4959436;29;20047;-74
2023/07/15 04:44:06;;;;;;;9.90;2.88;;;;;;;18.79;100.00;100133.66;4961997;28;20094;-74
2023/07/15 04:46:52;;;;;;;9.98;3.42;;;;;;;18.80;100.00;100143.69;4964142;28;20047;-73
2023/07/15 04:49:38;;;;;;;7.57;3.42;;;;;;;18.88;100.00;100139.97;4946283;29;20054;-75
2023/07/15 04:52:24;;;;;;;11.38;3.53;;;;;;;18.96;100.00;100147.34;4958939;28;20039;-75
2023/07/15 04:55:09;;;;;;;12.45;3.70;;;;;;;19.07;100.00;100144.94;4961808;29;20032;-73
2023/07/15 04:57:55;;;;;;;5.93;3.30;;;;;;;19.07;100.00;100150.47;4976103;28;20039;-74
2023/07/15 05:00:42;;;;;;;9.63;3.47;;;;;;;19.20;100.00;100148.91;4972498;28;20039;-74
2023/07/15 05:03:28;;;;;;;9.45;3.17;;;;;;;19.32;100.00;100144.56;4974844;28;20035;-74
2023/07/15 05:06:15;;;;;;;6.18;3.30;;;;;;;19.37;100.00;100152.31;4969474;28;20055;-74
2023/07/15 05:09:00;;;;;;;13.18;3.92;;;;;;;19.31;100.00;100151.16;4956108;28;20047;-74
2023/07/15 05:11:46;;;;;;;11.80;3.85;;;;;;;19.32;100.00;100154.81;4963180;28;20050;-74
2023/07/15 05:14:32;;;;;;;7.40;3.13;;;;;;;19.33;100.00;100145.41;4983622;28;20023;-75
2023/07/15 05:17:18;;;;;;;7.07;4.38;;;;;;;19.43;100.00;100155.16;4962534;28;20035;-75
2023/07/15 05:20:04;;;;;;;10.52;3.95;;;;;;;19.45;100.00;100161.38;4953964;28;20086;-75
2023/07/15 05:22:50;;;;;;;8.43;3.33;;;;;;;19.62;100.00;100150.84;4969160;28;20063;-75
2023/07/15 05:25:35;;;;;;;9.10;3.58;;;;;;;19.91;100.00;100146.25;4956465;28;20067;-75
2023/07/15 05:28:21;;;;;;;11.43;3.30;;;;;;;20.06;100.00;100156.44;4955125;29;20047;-74
2023/07/15 05:31:07;;;;;;;9.38;2.90;;;;;;;20.24;100.00;100150.38;4944145;28;20078;-74
2023/07/15 05:33:53;;;;;;;7.85;2.97;;;;;;;20.35;100.00;100159.00;4957040;29;20103;-75
2023/07/15 05:36:38;;;;;;;7.55;2.63;;;;;;;20.81;100.00;100157.63;4956448;28;20027;-74
2023/07/15 05:39:24;;;;;;;6.97;3.03;;;;;;;21.05;99.62;100152.56;4963878;28;20051;-76
2023/07/15 05:42:10;;;;;;;7.35;2.70;;;;;;;21.37;97.37;100161.28;4947850;28;20035;-75
2023/07/15 05:44:56;;;;;;;9.88;2.83;;;;;;;21.43;97.75;100154.84;4978276;28;20031;-75
2023/07/15 05:47:42;;;;;;;10.57;2.95;;;;;;;21.72;94.47;100153.66;4948385;28;20111;-75
2023/07/15 05:50:32;;;;;;;7.13;2.65;;;;;;;22.27;90.94;100155.38;4940184;28;20047;-75
2023/07/15 05:53:18;;;;;;;16.33;3.25;;;;;;;22.39;88.85;100159.25;4967603;28;20035;-74
2023/07/15 05:56:04;;;;;;;8.70;2.75;;;;;;;22.53;89.87;100155.38;4938754;28;20070;-75
2023/07/15 05:58:50;;;;;;;14.48;3.03;;;;;;;23.13;87.63;100165.53;4934628;28;20039;-76
2023/07/15 06:01:36;;;;;;;3.88;2.45;;;;;;;23.12;85.66;100166.63;4955168;28;20043;-76
2023/07/15 06:04:22;;;;;;;4.20;2.45;;;;;;;23.31;84.44;100157.28;4931838;28;20039;-75
2023/07/15 06:07:08;;;;;;;4.32;2.25;;;;;;;23.68;81.39;100156.66;4932157;28;20117;-75
2023/07/15 06:09:53;;;;;;;9.40;2.50;;;;;;;23.78;79.79;100170.97;4953692;28;20045;-75
2023/07/15 06:12:39;;;;;;;5.18;2.72;;;;;;;23.56;79.24;100186.38;4942596;28;20502;-76
2023/07/15 06:15:25;;;;;;;10.00;2.30;;;;;;;23.80;77.59;100193.97;4949739;28;20051;-76
2023/07/15 06:18:10;;;;;;;7.32;2.33;;;;;;;24.33;74.57;100198.31;4937194;28;20047;-76
2023/07/15 06:20:56;;;;;;;9.23;2.30;;;;;;;24.30;74.05;100184.81;4939165;28;20105;-76
2023/07/15 06:23:42;;;;;;;5.93;2.22;;;;;;;24.89;71.92;100192.84;4943287;28;20417;-77
2023/07/15 06:26:27;;;;;;;5.88;2.67;;;;;;;25.05;71.38;100192.25;4932838;28;20966;-76
2023/07/15 06:29:13;;;;;;;3.42;2.33;;;;;;;25.50;70.14;100197.53;4954721;29;20430;-76
2023/07/15 06:31:59;;;;;;;8.95;2.20;;;;;;;25.32;70.59;100189.16;4947998;28;20075;-77
2023/07/15 06:34:44;;;;;;;12.73;2.08;;;;;;;25.97;68.18;100191.25;4925196;28;20405;-75
2023/07/15 06:37:32;;;;;;;8.02;2.00;;;;;;;25.38;70.56;100198.56;4947771;28;20043;-76
2023/07/15 06:40:18;;;;;;;9.73;2.38;;;;;;;25.34;70.75;100192.56;4960557;28;20046;-76
2023/07/15 06:43:04;;;;;;;8.18;2.35;;;;;;;24.66;73.52;100186.03;4943713;29;20051;-75
2023/07/15 06:45:50;;;;;;;6.85;2.40;;;;;;;24.97;73.56;100192.56;4952622;28;20047;-77
2023/07/15 06:48:35;;;;;;;6.25;2.22;;;;;;;25.81;71.25;100183.50;4945584;29;20071;-77
2023/07/15 06:51:22;;;;;;;5.57;2.00;;;;;;;26.25;68.58;100186.09;4948980;29;20078;-76
2023/07/15 06:54:08;;;;;;;6.18;2.00;;;;;;;25.92;69.28;100196.72;4945036;29;20182;-75
2023/07/15 06:56:54;;;;;;;8.77;2.00;;;;;;;27.01;65.84;100189.06;4959627;28;20066;-75
2023/07/15 06:59:41;;;;;;;11.70;2.28;;;;;;;26.71;65.53;100190.91;4954488;29;20035;-77
2023/07/15 07:02:26;;;;;;;8.30;2.22;;;;;;;25.81;66.51;100175.97;4929154;29;20039;-78
2023/07/15 07:05:12;;;;;;;5.57;2.10;;;;;;;26.01;66.88;100181.28;4949976;28;20047;-76
2023/07/15 07:07:58;;;;;;;7.18;1.85;;;;;;;26.32;66.17;100190.50;4965122;29;20047;-76
2023/07/15 07:10:44;;;;;;;3.85;2.00;;;;;;;26.25;66.55;100186.94;4943709;29;20027;-77
2023/07/15 07:13:29;;;;;;;5.85;1.83;;;;;;;26.80;65.98;100187.72;4961025;28;20031;-74
2023/07/15 07:16:16;;;;;;;6.95;1.63;;;;;;;27.50;64.81;100195.19;4961496;28;20035;-75
2023/07/15 07:19:02;;;;;;;6.45;1.40;;;;;;;27.16;66.94;100197.81;4970040;28;20045;-73
2023/07/15 07:21:47;;;;;;;6.40;1.38;;;;;;;26.01;71.78;100197.28;4952075;29;20039;-74
2023/07/15 07:24:33;;;;;;;5.80;1.10;;;;;;;25.69;76.31;100191.88;4956764;28;20521;-75
2023/07/15 07:27:19;;;;;;;4.07;1.00;;;;;;;25.67;79.64;100196.88;4963021;29;20148;-74
2023/07/15 07:30:05;;;;;;;6.60;1.17;;;;;;;25.71;79.63;100191.63;4965612;28;20039;-73
2023/07/15 07:32:51;;;;;;;2.20;0.98;;;;;;;25.13;84.85;100191.09;4966848;29;20027;-73
2023/07/15 07:35:37;;;;;;;3.72;1.00;;;;;;;25.07;87.10;100200.41;4961720;28;20046;-74
2023/07/15 07:38:23;;;;;;;1.65;0.93;;;;;;;24.90;88.56;100198.22;4952084;28;20312;-74
2023/07/15 07:41:11;;;;;;;1.75;0.98;;;;;;;25.90;84.74;100200.88;4962639;28;20027;-74
2023/07/15 07:43:57;;;;;;;6.45;1.10;;;;;;;27.00;77.99;100218.25;4972936;28;20043;-74
2023/07/15 07:46:42;;;;;;;13.30;1.08;;;;;;;25.64;82.01;100202.94;4965662;28;20063;-76
2023/07/15 07:49:28;;;;;;;3.33;1.10;;;;;;;24.93;82.78;100185.72;4962434;28;20044;-74
2023/07/15 07:52:14;;;;;;;3.60;1.27;;;;;;;25.02;83.33;100195.53;4959383;29;20039;-76
2023/07/15 07:55:00;;;;;;;2.38;1.20;;;;;;;25.48;81.89;100201.66;4947049;29;20041;-77
2023/07/15 07:57:46;;;;;;;3.70;1.42;;;;;;;26.31;79.03;100196.34;4937443;29;20043;-75
2023/07/15 08:00:32;;;;;;;4.00;1.13;;;;;;;26.21;79.44;100203.41;4945597;29;20038;-73
2023/07/15 08:03:18;;;;;;;5.65;1.30;;;;;;;25.62;81.92;100203.19;4947320;28;20141;-76
2023/07/15 08:06:04;;;;;;;3.05;1.27;;;;;;;25.98;81.07;100206.16;4973156;29;20108;-75
2023/07/15 08:08:50;;;;;;;1.33;1.20;;;;;;;25.48;82.39;100198.84;4962158;29;20039;-73
2023/07/15 08:11:37;;;;;;;2.90;1.25;;;;;;;25.41;84.28;100198.09;4975597;28;20043;-75
2023/07/15 08:14:23;;;;;;;3.95;1.20;;;;;;;25.47;83.74;100203.63;4979234;28;20054;-73
2023/07/15 08:17:09;;;;;;;2.80;1.17;;;;;;;25.39;83.50;100214.31;4975145;29;20078;-74
2023/07/15 08:19:54;;;;;;;3.03;1.23;;;;;;;24.92;86.27;100212.88;4957928;28;20031;-74
2023/07/15 08:22:40;;;;;;;5.55;1.35;;;;;;;24.93;87.04;100213.72;4956760;29;20051;-77
2023/07/15 08:25:26;;;;;;;3.03;1.23;;;;;;;24.81;88.30;100216.44;4948458;29;20457;-74
2023/07/15 08:28:12;;;;;;;2.03;1.10;;;;;;;24.83;88.96;100210.63;4956012;28;20042;-76
2023/07/15 08:30:58;;;;;;;4.32;1.10;;;;;;;25.22;87.01;100205.63;4939878;29;20039;-76
2023/07/15 08:33:44;;;;;;;4.07;1.52;;;;;;;25.44;86.85;100215.28;4964256;28;20047;-74
2023/07/15 08:36:29;;;;;;;5.00;1.48;;;;;;;25.29;86.74;100220.47;4957850;29;20050;-76
2023/07/15 08:39:15;;;;;;;3.08;1.15;;;;;;;25.05;87.02;100217.44;4977338;28;20039;-74
2023/07/15 08:42:01;;;;;;;4.68;1.17;;;;;;;24.95;88.00;100219.94;4953907;29;20067;-75
2023/07/15 08:44:51;;;;;;;4.07;1.33;;;;;;;24.85;91.09;100236.44;4971529;29;20071;-76
2023/07/15 08:47:39;;;;;;;7.25;1.25;;;;;;;24.68;91.27;100230.59;4953249;28;20043;-75
2023/07/15 08:50:27;;;;;;;5.07;1.85;;;;;;;24.56;92.12;100225.75;4930884;29;20118;-76
2023/07/15 08:53:16;;;;;;;2.55;1.15;;;;;;;24.53;89.58;100228.09;4970035;29;20043;-76
2023/07/15 08:56:01;;;;;;;5.32;1.25;;;;;;;24.80;86.84;100247.47;4949585;29;20403;-74
2023/07/15 08:58:47;;;;;;;4.43;1.45;;;;;;;24.85;87.82;100244.84;4972371;29;20034;-72
2023/07/15 09:01:37;;;;;;;5.68;1.30;;;;;;;25.14;84.79;100246.88;4957839;28;20058;-73
2023/07/15 09:04:23;;;;;;;4.00;1.35;;;;;;;25.23;85.53;100258.63;4972558;29;20050;-75
2023/07/15 09:07:08;;;;;;;7.80;1.42;;;;;;;25.02;83.52;100284.31;4957609;29;20043;-73
2023/07/15 09:09:54;;;;;;;5.13;1.33;;;;;;;24.99;84.70;100285.63;4952064;29;20043;-73
2023/07/15 09:12:58;;;;;;;4.40;1.20;;;;;;;24.67;85.40;100298.84;4915198;29;20047;-74
2023/07/15 09:15:46;;;;;;;6.47;1.65;;;;;;;24.56;85.74;100283.66;4930775;29;20069;-77
2023/07/15 09:18:38;;;;;;;7.70;1.95;;;;;;;24.46;87.13;100286.06;4924772;29;20058;-75
2023/07/15 09:21:24;;;;;;;4.35;1.40;;;;;;;24.25;87.94;100298.50;4956002;29;20043;-75
2023/07/15 09:24:09;;;;;;;4.82;1.00;;;;;;;24.08;96.99;100307.41;4949741;29;20413;-76
2023/07/15 09:26:55;;;;;;;5.95;1.48;;;;;;;23.47;100.00;100305.97;4924467;29;20074;-73
2023/07/15 09:29:41;;;;;;;8.38;1.52;;;;;;;23.54;100.00;100281.63;4973027;28;20043;-72
2023/07/15 09:32:31;;;;;;;11.98;1.63;;;;;;;23.65;100.00;100266.97;4944733;29;20044;-73
2023/07/15 09:35:17;;;;;;;2.72;1.20;;;;;;;24.06;100.00;100256.44;4967827;28;20126;-74
2023/07/15 09:38:10;;;;;;;9.30;1.50;;;;;;;24.81;100.00;100264.06;4950987;29;20043;-76
2023/07/15 09:40:56;;;;;;;;;;;;;;;24.89;100.00;100265.69;4953942;29;20097;-75
2023/07/15 09:43:49;;;;;;;8.48;1.50;;;;;;;25.64;100.00;100270.25;4961465;29;20277;-75
2023/07/15 09:46:39;;;;;;;3.67;1.67;;;;;;;25.23;100.00;100275.44;4971875;28;20074;-75
2023/07/15 09:49:25;;;;;;;4.30;1.50;;;;;;;25.34;100.00;100268.25;4961188;29;20051;-75
2023/07/15 09:52:13;;;;;;;2.78;1.30;;;;;;;25.09;100.00;100268.31;4946357;29;20039;-76
2023/07/15 09:54:59;;;;;;;3.65;1.55;;;;;;;24.91;100.00;100263.53;4965337;28;20035;-73
2023/07/15 09:57:47;;;;;;;1.80;1.25;;;;;;;24.75;100.00;100265.81;4936943;28;20043;-76
2023/07/15 10:00:35;;;;;;;5.60;1.42;;;;;;;25.05;100.00;100265.09;4947843;29;20043;-76
2023/07/15 10:03:27;;;;;;;5.93;1.73;;;;;;;25.52;100.00;100277.75;4957630;28;20063;-74
2023/07/15 10:06:14;;;;;;;4.40;1.50;;;;;;;24.83;100.00;100289.03;4959405;28;20036;-76
2023/07/15 10:09:01;;;;;;;4.43;1.67;;;;;;;25.18;100.00;100280.91;4961833;28;20039;-75
2023/07/15 10:14:15;;;;;;;2.63;1.60;;;;;;;25.09;100.00;100285.97;4990752;28;20046;-76
2023/07/15 10:17:12;;;;;;;3.50;1.40;;;;;;;24.79;100.00;100284.97;4994025;28;20097;-74
2023/07/15 10:20:03;;;;;;;3.10;1.65;;;;;;;24.87;100.00;100277.13;5010326;28;20086;-72
2023/07/15 10:22:50;;;;;;;4.25;1.52;;;;;;;26.53;98.07;100275.22;5000657;28;20090;-73
2023/07/15 10:25:37;;;;;;;9.15;1.88;;;;;;;27.09;93.08;100261.75;5008108;28;20048;-75
2023/07/15 10:28:22;;;;;;;3.50;1.30;;;;;;;27.38;87.98;100282.38;4992942;28;20037;-73
2023/07/15 10:31:14;;;;;;;2.40;1.23;;;;;;;27.42;85.08;100268.69;4988684;28;20036;-73
2023/07/15 10:34:04;;;;;;;3.97;1.40;;;;;;;27.49;82.05;100252.53;5004700;28;20042;-73
2023/07/15 10:36:50;;;;;;;5.63;1.30;;;;;;;27.37;83.44;100248.88;5007230;28;20094;-73
2023/07/15 10:39:36;;;;;;;2.90;1.30;;;;;;;26.98;85.30;100232.53;5007742;28;20042;-74
2023/07/15 10:42:21;;;;;;;6.18;1.25;;;;;;;26.39;87.31;100227.72;5003614;28;20054;-74
2023/07/15 10:45:11;;;;;;;3.60;1.10;;;;;;;26.13;89.48;100220.59;4990022;28;20057;-71
2023/07/15 10:47:58;;;;;;;2.42;1.30;;;;;;;26.36;88.64;100221.75;4981379;28;20054;-72
2023/07/15 10:50:50;;;;;;;5.68;1.45;;;;;;;26.09;89.58;100244.63;4990382;28;20049;-73
2023/07/15 10:53:37;;;;;;;2.53;1.35;;;;;;;26.40;87.95;100262.28;4995538;28;20124;-72
2023/07/15 10:56:23;;;;;;;3.47;1.33;;;;;;;25.71;91.70;100251.41;4976491;28;20074;-71
2023/07/15 10:59:08;;;;;;;1.55;1.10;;;;;;;25.39;92.54;100245.13;4981599;28;20057;-70
2023/07/15 11:01:55;;;;;;;4.07;1.63;;;;;;;25.35;95.00;100264.38;4987637;28;20069;-72
2023/07/15 11:04:41;;;;;;;1.58;1.00;;;;;;;25.31;95.70;100274.31;4989862;28;20038;-71
2023/07/15 11:07:28;;;;;;;3.30;1.08;;;;;;;25.21;95.62;100260.81;4960800;28;20055;-70
2023/07/15 11:10:14;;;;;;;3.35;1.30;;;;;;;25.64;93.55;100265.50;4977256;28;20049;-70
2023/07/15 11:13:17;;;;;;;2.60;1.17;;;;;;;25.81;93.90;100270.44;4978809;28;20078;-70
2023/07/15 11:16:03;;;;;;;2.95;1.30;;;;;;;26.33;91.14;100269.94;4975078;28;20185;-72
2023/07/15 11:18:49;;;;;;;5.45;1.20;;;;;;;26.32;89.55;100260.66;4977441;28;20030;-71
2023/07/15 11:21:34;;;;;;;6.18;1.50;;;;;;;26.32;90.45;100260.66;4985413;28;20074;-69
2023/07/15 11:26:59;;;;;;;4.47;1.50;;;;;;;25.99;91.52;100261.16;5099430;22;19929;-73
2023/07/15 11:29:45;;;;;;;3.70;1.10;;;;;;;26.07;91.49;100259.97;5010177;28;20120;-70
2023/07/15 11:32:31;;;;;;;8.02;1.50;;;;;;;25.91;90.65;100247.44;4987306;28;20056;-71
2023/07/15 11:35:17;;;;;;;4.43;1.30;;;;;;;25.59;92.36;100244.88;4973905;28;20045;-71
2023/07/15 11:38:15;;;;;;;7.47;1.75;;;;;;;25.84;91.36;100245.59;4972825;28;20386;-71
2023/07/15 11:41:01;;;;;;;4.10;1.08;;;;;;;25.87;90.64;100247.06;4985280;28;20663;-72
2023/07/15 11:43:49;;;;;;;5.20;1.38;;;;;;;25.64;92.22;100247.81;5012491;28;20046;-75
2023/07/15 11:46:35;;;;;;;3.40;1.40;;;;;;;25.36;93.54;100243.63;5006269;28;20039;-70
2023/07/15 11:49:22;;;;;;;2.30;1.30;;;;;;;25.13;95.13;100247.97;4959468;28;20042;-73
2023/07/15 11:52:18;;;;;;;8.90;1.40;;;;;;;24.53;99.03;100239.28;5004572;28;20045;-70
2023/07/15 11:55:05;;;;;;;10.13;1.45;;;;;;;24.65;100.00;100233.84;4999706;28;20046;-72
2023/07/15 11:57:51;;;;;;;2.60;1.50;;;;;;;24.93;100.00;100219.34;4987165;28;20572;-73
2023/07/15 12:00:42;;;;;;;3.25;1.25;;;;;;;25.28;100.00;100221.53;4990581;28;20046;-73
2023/07/15 12:03:28;;;;;;;2.10;1.23;;;;;;;24.72;100.00;100231.81;5015375;28;20038;-73
2023/07/15 12:06:17;;;;;;;4.97;1.40;;;;;;;25.09;98.18;100215.91;4980093;28;20051;-72
2023/07/15 12:09:05;;;;;;;5.32;1.45;;;;;;;24.86;100.00;100222.22;4987898;28;20066;-72
2023/07/15 12:11:51;;;;;;;3.35;1.45;;;;;;;24.79;100.00;100241.00;4994233;28;20069;-73
2023/07/15 12:14:37;;;;;;;2.83;1.42;;;;;;;24.57;100.00;100226.59;5002084;28;20033;-72
2023/07/15 12:17:23;;;;;;;6.95;1.50;;;;;;;24.89;100.00;100209.66;4973183;28;20414;-70
2023/07/15 12:20:10;;;;;;;3.58;1.52;;;;;;;25.37;98.62;100210.88;4976248;28;20097;-71
2023/07/15 12:22:56;;;;;;;4.72;1.85;;;;;;;25.56;97.88;100206.09;4995632;28;20041;-70
2023/07/15 12:25:42;;;;;;;2.72;1.27;;;;;;;25.79;96.08;100197.78;4984910;28;20039;-72
2023/07/15 12:28:27;;;;;;;4.93;1.95;;;;;;;25.64;96.83;100197.34;4961264;28;20046;-72
2023/07/15 12:31:14;;;;;;;4.07;1.67;;;;;;;26.28;95.28;100182.78;4983549;28;20038;-71
2023/07/15 12:34:00;;;;;;;7.82;1.70;;;;;;;26.15;92.30;100215.59;4991344;28;20405;-72
2023/07/15 12:36:46;;;;;;;7.15;1.80;;;;;;;25.51;96.71;100206.78;4972532;28;20086;-73
2023/07/15 12:39:32;;;;;;;5.25;1.60;;;;;;;25.55;94.84;100193.16;4987473;28;20035;-71
2023/07/15 12:42:18;;;;;;;6.07;1.67;;;;;;;25.43;97.10;100201.50;4957704;28;20076;-74
2023/07/15 12:45:04;;;;;;;5.25;2.00;;;;;;;25.70;95.75;100190.78;4957699;28;20253;-72
2023/07/15 12:47:49;;;;;;;3.25;2.25;;;;;;;25.82;94.57;100188.03;4969372;28;20049;-71
2023/07/15 12:50:35;;;;;;;9.55;1.80;;;;;;;26.63;93.52;100188.44;4969949;28;20499;-72
2023/07/15 12:53:23;;;;;;;4.53;1.75;;;;;;;26.10;92.14;100194.97;4963097;28;20168;-72
2023/07/15 12:56:13;;;;;;;4.97;1.60;;;;;;;25.88;93.56;100191.84;4959308;28;20049;-73